sensor_id;sensor_type;location;lat;lon;timestamp;P1;durP1;ratioP1;P2;durP2;ratioP2
11481;SDS011;5797;51.662;6.748;2023-11-19T00:01:17;12.63;;;8.03;;
11481;SDS011;5797;51.662;6.748;2023-11-19T00:03:47;13.47;;;8.77;;
11481;SDS011;5797;51.662;6.748;2023-11-19T00:06:17;14.50;;;8.77;;
11481;SDS011;5797;51.662;6.748;2023-11-19T00:08:45;19.20;;;8.73;;
11481;SDS011;5797;51.662;6.748;2023-11-19T00:11:14;13.53;;;9.40;;
11481;SDS011;5797;51.662;6.748;2023-11-19T00:13:42;12.97;;;8.57;;
11481;SDS011;5797;51.662;6.748;2023-11-19T00:16:11;15.47;;;9.10;;
11481;SDS011;5797;51.662;6.748;2023-11-19T00:18:39;12.63;;;8.90;;
11481;SDS011;5797;51.662;6.748;2023-11-19T00:21:09;15.30;;;9.10;;
11481;SDS011;5797;51.662;6.748;2023-11-19T00:23:38;15.83;;;9.23;;
11481;SDS011;5797;51.662;6.748;2023-11-19T00:26:06;13.20;;;8.70;;
11481;SDS011;5797;51.662;6.748;2023-11-19T00:28:36;11.93;;;9.00;;
11481;SDS011;5797;51.662;6.748;2023-11-19T00:31:05;11.93;;;8.40;;
11481;SDS011;5797;51.662;6.748;2023-11-19T00:33:34;12.27;;;8.27;;
11481;SDS011;5797;51.662;6.748;2023-11-19T00:36:16;11.37;;;7.60;;
11481;SDS011;5797;51.662;6.748;2023-11-19T00:38:45;12.30;;;7.00;;
11481;SDS011;5797;51.662;6.748;2023-11-19T00:41:13;11.17;;;7.57;;
11481;SDS011;5797;51.662;6.748;2023-11-19T00:43:43;10.17;;;6.90;;
11481;SDS011;5797;51.662;6.748;2023-11-19T00:46:11;10.90;;;7.30;;
11481;SDS011;5797;51.662;6.748;2023-11-19T00:48:40;9.20;;;6.87;;
11481;SDS011;5797;51.662;6.748;2023-11-19T00:51:08;11.70;;;6.93;;
11481;SDS011;5797;51.662;6.748;2023-11-19T00:53:41;10.47;;;6.50;;
11481;SDS011;5797;51.662;6.748;2023-11-19T00:56:10;9.03;;;6.50;;
11481;SDS011;5797;51.662;6.748;2023-11-19T00:58:40;11.43;;;6.97;;
11481;SDS011;5797;51.662;6.748;2023-11-19T01:01:08;10.63;;;6.50;;
11481;SDS011;5797;51.662;6.748;2023-11-19T01:03:36;13.67;;;6.93;;
11481;SDS011;5797;51.662;6.748;2023-11-19T01:06:05;10.93;;;7.23;;
11481;SDS011;5797;51.662;6.748;2023-11-19T01:08:35;10.07;;;7.40;;
11481;SDS011;5797;51.662;6.748;2023-11-19T01:11:05;9.57;;;6.23;;
11481;SDS011;5797;51.662;6.748;2023-11-19T01:13:33;13.20;;;7.20;;
11481;SDS011;5797;51.662;6.748;2023-11-19T01:16:02;12.13;;;7.27;;
11481;SDS011;5797;51.662;6.748;2023-11-19T01:18:30;10.37;;;7.00;;
11481;SDS011;5797;51.662;6.748;2023-11-19T01:20:59;9.60;;;7.47;;
11481;SDS011;5797;51.662;6.748;2023-11-19T01:23:27;9.37;;;6.93;;
11481;SDS011;5797;51.662;6.748;2023-11-19T01:25:55;10.43;;;6.53;;
11481;SDS011;5797;51.662;6.748;2023-11-19T01:28:25;10.77;;;6.17;;
11481;SDS011;5797;51.662;6.748;2023-11-19T01:30:53;9.70;;;6.60;;
11481;SDS011;5797;51.662;6.748;2023-11-19T01:33:22;7.30;;;5.30;;
11481;SDS011;5797;51.662;6.748;2023-11-19T01:35:50;10.73;;;5.10;;
11481;SDS011;5797;51.662;6.748;2023-11-19T01:38:18;11.57;;;6.17;;
11481;SDS011;5797;51.662;6.748;2023-11-19T01:40:47;9.07;;;5.50;;
11481;SDS011;5797;51.662;6.748;2023-11-19T01:46:00;9.80;;;5.40;;
11481;SDS011;5797;51.662;6.748;2023-11-19T01:48:29;8.40;;;5.77;;
11481;SDS011;5797;51.662;6.748;2023-11-19T01:50:59;6.13;;;5.03;;
11481;SDS011;5797;51.662;6.748;2023-11-19T01:53:29;7.33;;;5.43;;
11481;SDS011;5797;51.662;6.748;2023-11-19T01:55:58;8.30;;;5.33;;
11481;SDS011;5797;51.662;6.748;2023-11-19T01:58:27;7.03;;;5.03;;
11481;SDS011;5797;51.662;6.748;2023-11-19T02:00:58;6.67;;;5.07;;
11481;SDS011;5797;51.662;6.748;2023-11-19T02:03:26;8.03;;;4.80;;
11481;SDS011;5797;51.662;6.748;2023-11-19T02:05:56;7.70;;;4.50;;
11481;SDS011;5797;51.662;6.748;2023-11-19T02:08:24;4.97;;;4.30;;
11481;SDS011;5797;51.662;6.748;2023-11-19T02:10:53;5.50;;;3.90;;
11481;SDS011;5797;51.662;6.748;2023-11-19T02:13:23;9.43;;;4.57;;
11481;SDS011;5797;51.662;6.748;2023-11-19T02:15:52;5.03;;;4.00;;
11481;SDS011;5797;51.662;6.748;2023-11-19T02:18:23;6.40;;;4.47;;
11481;SDS011;5797;51.662;6.748;2023-11-19T02:20:55;5.63;;;4.23;;
11481;SDS011;5797;51.662;6.748;2023-11-19T02:23:23;6.03;;;3.90;;
11481;SDS011;5797;51.662;6.748;2023-11-19T02:25:59;9.17;;;4.67;;
11481;SDS011;5797;51.662;6.748;2023-11-19T02:28:33;7.07;;;4.60;;
11481;SDS011;5797;51.662;6.748;2023-11-19T02:31:04;5.87;;;4.03;;
11481;SDS011;5797;51.662;6.748;2023-11-19T02:33:36;5.97;;;4.13;;
11481;SDS011;5797;51.662;6.748;2023-11-19T02:36:05;8.00;;;4.83;;
11481;SDS011;5797;51.662;6.748;2023-11-19T02:38:35;6.07;;;3.90;;
11481;SDS011;5797;51.662;6.748;2023-11-19T02:41:03;8.53;;;3.97;;
11481;SDS011;5797;51.662;6.748;2023-11-19T02:43:34;11.93;;;4.50;;
11481;SDS011;5797;51.662;6.748;2023-11-19T02:46:04;9.20;;;4.17;;
11481;SDS011;5797;51.662;6.748;2023-11-19T02:48:37;12.70;;;4.07;;
11481;SDS011;5797;51.662;6.748;2023-11-19T02:51:06;6.90;;;3.90;;
11481;SDS011;5797;51.662;6.748;2023-11-19T02:53:36;10.47;;;4.30;;
11481;SDS011;5797;51.662;6.748;2023-11-19T02:56:07;15.90;;;4.03;;
11481;SDS011;5797;51.662;6.748;2023-11-19T02:58:44;12.97;;;4.73;;
11481;SDS011;5797;51.662;6.748;2023-11-19T03:01:13;12.00;;;4.47;;
11481;SDS011;5797;51.662;6.748;2023-11-19T03:03:50;6.13;;;3.33;;
11481;SDS011;5797;51.662;6.748;2023-11-19T03:06:21;6.20;;;3.27;;
11481;SDS011;5797;51.662;6.748;2023-11-19T03:08:50;9.13;;;2.90;;
11481;SDS011;5797;51.662;6.748;2023-11-19T03:11:18;10.53;;;3.70;;
11481;SDS011;5797;51.662;6.748;2023-11-19T03:13:48;17.73;;;3.70;;
11481;SDS011;5797;51.662;6.748;2023-11-19T03:16:16;8.93;;;3.87;;
11481;SDS011;5797;51.662;6.748;2023-11-19T03:18:45;10.73;;;3.70;;
11481;SDS011;5797;51.662;6.748;2023-11-19T03:21:13;9.57;;;3.40;;
11481;SDS011;5797;51.662;6.748;2023-11-19T03:23:41;9.73;;;3.70;;
11481;SDS011;5797;51.662;6.748;2023-11-19T03:26:10;7.30;;;3.33;;
11481;SDS011;5797;51.662;6.748;2023-11-19T03:28:38;9.00;;;3.50;;
11481;SDS011;5797;51.662;6.748;2023-11-19T03:31:08;15.17;;;3.90;;
11481;SDS011;5797;51.662;6.748;2023-11-19T03:33:36;12.20;;;3.67;;
11481;SDS011;5797;51.662;6.748;2023-11-19T03:36:05;14.80;;;3.67;;
11481;SDS011;5797;51.662;6.748;2023-11-19T03:38:35;15.63;;;4.07;;
11481;SDS011;5797;51.662;6.748;2023-11-19T03:41:09;10.77;;;4.17;;
11481;SDS011;5797;51.662;6.748;2023-11-19T03:43:39;8.80;;;2.97;;
11481;SDS011;5797;51.662;6.748;2023-11-19T03:46:16;9.30;;;3.57;;
11481;SDS011;5797;51.662;6.748;2023-11-19T03:48:46;7.47;;;3.43;;
11481;SDS011;5797;51.662;6.748;2023-11-19T03:51:14;15.80;;;3.60;;
11481;SDS011;5797;51.662;6.748;2023-11-19T03:53:43;17.17;;;3.57;;
11481;SDS011;5797;51.662;6.748;2023-11-19T03:56:12;15.57;;;3.97;;
11481;SDS011;5797;51.662;6.748;2023-11-19T03:58:41;14.03;;;3.73;;
11481;SDS011;5797;51.662;6.748;2023-11-19T04:01:10;17.53;;;4.63;;
11481;SDS011;5797;51.662;6.748;2023-11-19T04:03:41;10.90;;;3.90;;
11481;SDS011;5797;51.662;6.748;2023-11-19T04:06:12;9.93;;;3.70;;
11481;SDS011;5797;51.662;6.748;2023-11-19T04:08:41;13.03;;;4.17;;
11481;SDS011;5797;51.662;6.748;2023-11-19T04:11:09;17.07;;;3.67;;
11481;SDS011;5797;51.662;6.748;2023-11-19T04:13:38;19.60;;;3.80;;
11481;SDS011;5797;51.662;6.748;2023-11-19T04:16:07;21.60;;;4.00;;
11481;SDS011;5797;51.662;6.748;2023-11-19T04:18:36;16.63;;;3.70;;
11481;SDS011;5797;51.662;6.748;2023-11-19T04:21:07;15.27;;;4.37;;
11481;SDS011;5797;51.662;6.748;2023-11-19T04:23:35;15.33;;;3.93;;
11481;SDS011;5797;51.662;6.748;2023-11-19T04:26:04;14.43;;;3.90;;
11481;SDS011;5797;51.662;6.748;2023-11-19T04:28:36;19.90;;;4.37;;
11481;SDS011;5797;51.662;6.748;2023-11-19T04:31:04;20.73;;;4.47;;
11481;SDS011;5797;51.662;6.748;2023-11-19T04:33:33;19.63;;;3.63;;
11481;SDS011;5797;51.662;6.748;2023-11-19T04:36:02;25.07;;;3.57;;
11481;SDS011;5797;51.662;6.748;2023-11-19T04:38:32;23.37;;;4.10;;
11481;SDS011;5797;51.662;6.748;2023-11-19T04:41:00;13.40;;;3.90;;
11481;SDS011;5797;51.662;6.748;2023-11-19T04:43:29;19.03;;;4.03;;
11481;SDS011;5797;51.662;6.748;2023-11-19T04:45:57;17.33;;;3.70;;
11481;SDS011;5797;51.662;6.748;2023-11-19T04:48:25;15.77;;;3.13;;
11481;SDS011;5797;51.662;6.748;2023-11-19T04:51:07;21.87;;;4.43;;
11481;SDS011;5797;51.662;6.748;2023-11-19T04:53:37;18.07;;;3.47;;
11481;SDS011;5797;51.662;6.748;2023-11-19T04:56:09;23.47;;;4.07;;
11481;SDS011;5797;51.662;6.748;2023-11-19T04:58:37;22.00;;;4.00;;
11481;SDS011;5797;51.662;6.748;2023-11-19T05:01:06;24.20;;;4.13;;
11481;SDS011;5797;51.662;6.748;2023-11-19T05:03:34;10.50;;;3.20;;
11481;SDS011;5797;51.662;6.748;2023-11-19T05:06:04;18.83;;;4.17;;
11481;SDS011;5797;51.662;6.748;2023-11-19T05:08:33;20.50;;;3.87;;
11481;SDS011;5797;51.662;6.748;2023-11-19T05:11:02;15.93;;;4.13;;
11481;SDS011;5797;51.662;6.748;2023-11-19T05:13:32;22.83;;;4.27;;
11481;SDS011;5797;51.662;6.748;2023-11-19T05:16:01;22.03;;;4.63;;
11481;SDS011;5797;51.662;6.748;2023-11-19T05:18:29;20.93;;;4.87;;
11481;SDS011;5797;51.662;6.748;2023-11-19T05:20:57;20.03;;;5.00;;
11481;SDS011;5797;51.662;6.748;2023-11-19T05:23:26;19.70;;;4.17;;
11481;SDS011;5797;51.662;6.748;2023-11-19T05:25:54;17.47;;;3.73;;
11481;SDS011;5797;51.662;6.748;2023-11-19T05:28:24;18.53;;;4.57;;
11481;SDS011;5797;51.662;6.748;2023-11-19T05:30:53;26.87;;;5.37;;
11481;SDS011;5797;51.662;6.748;2023-11-19T05:33:21;20.90;;;4.63;;
11481;SDS011;5797;51.662;6.748;2023-11-19T05:35:50;31.00;;;5.37;;
11481;SDS011;5797;51.662;6.748;2023-11-19T05:38:18;25.37;;;4.57;;
11481;SDS011;5797;51.662;6.748;2023-11-19T05:40:47;20.47;;;4.77;;
11481;SDS011;5797;51.662;6.748;2023-11-19T05:43:16;18.50;;;4.93;;
11481;SDS011;5797;51.662;6.748;2023-11-19T05:45:46;25.57;;;5.07;;
11481;SDS011;5797;51.662;6.748;2023-11-19T05:48:14;31.37;;;5.53;;
11481;SDS011;5797;51.662;6.748;2023-11-19T05:50:43;22.83;;;6.23;;
11481;SDS011;5797;51.662;6.748;2023-11-19T05:53:12;29.23;;;4.93;;
11481;SDS011;5797;51.662;6.748;2023-11-19T05:55:41;19.13;;;4.70;;
11481;SDS011;5797;51.662;6.748;2023-11-19T05:58:15;14.13;;;3.97;;
11481;SDS011;5797;51.662;6.748;2023-11-19T06:00:44;16.27;;;4.03;;
11481;SDS011;5797;51.662;6.748;2023-11-19T06:03:17;17.57;;;4.20;;
11481;SDS011;5797;51.662;6.748;2023-11-19T06:05:46;24.33;;;4.47;;
11481;SDS011;5797;51.662;6.748;2023-11-19T06:08:15;24.50;;;5.20;;
11481;SDS011;5797;51.662;6.748;2023-11-19T06:10:44;22.23;;;5.43;;
11481;SDS011;5797;51.662;6.748;2023-11-19T06:13:14;18.77;;;4.57;;
11481;SDS011;5797;51.662;6.748;2023-11-19T06:15:42;19.03;;;4.80;;
11481;SDS011;5797;51.662;6.748;2023-11-19T06:18:12;19.07;;;4.17;;
11481;SDS011;5797;51.662;6.748;2023-11-19T06:20:41;19.70;;;5.03;;
11481;SDS011;5797;51.662;6.748;2023-11-19T06:23:10;22.43;;;4.20;;
11481;SDS011;5797;51.662;6.748;2023-11-19T06:25:38;18.17;;;4.07;;
11481;SDS011;5797;51.662;6.748;2023-11-19T06:28:06;20.63;;;4.17;;
11481;SDS011;5797;51.662;6.748;2023-11-19T06:30:36;20.23;;;4.07;;
11481;SDS011;5797;51.662;6.748;2023-11-19T06:33:23;17.50;;;3.67;;
11481;SDS011;5797;51.662;6.748;2023-11-19T06:36:33;16.17;;;3.70;;
11481;SDS011;5797;51.662;6.748;2023-11-19T06:39:03;24.73;;;4.87;;
11481;SDS011;5797;51.662;6.748;2023-11-19T06:41:33;20.20;;;4.43;;
11481;SDS011;5797;51.662;6.748;2023-11-19T06:44:02;19.77;;;4.90;;
11481;SDS011;5797;51.662;6.748;2023-11-19T06:46:31;18.97;;;4.27;;
11481;SDS011;5797;51.662;6.748;2023-11-19T06:49:00;18.37;;;4.90;;
11481;SDS011;5797;51.662;6.748;2023-11-19T06:51:28;16.93;;;3.80;;
11481;SDS011;5797;51.662;6.748;2023-11-19T06:53:58;22.23;;;3.73;;
11481;SDS011;5797;51.662;6.748;2023-11-19T06:56:26;20.67;;;3.70;;
11481;SDS011;5797;51.662;6.748;2023-11-19T06:58:55;30.23;;;4.17;;
11481;SDS011;5797;51.662;6.748;2023-11-19T07:01:23;13.73;;;4.07;;
11481;SDS011;5797;51.662;6.748;2023-11-19T07:03:51;24.87;;;5.07;;
11481;SDS011;5797;51.662;6.748;2023-11-19T07:06:21;24.17;;;5.40;;
11481;SDS011;5797;51.662;6.748;2023-11-19T07:09:02;20.13;;;5.40;;
11481;SDS011;5797;51.662;6.748;2023-11-19T07:11:44;19.40;;;5.30;;
11481;SDS011;5797;51.662;6.748;2023-11-19T07:14:20;21.20;;;5.13;;
11481;SDS011;5797;51.662;6.748;2023-11-19T07:16:50;18.87;;;4.50;;
11481;SDS011;5797;51.662;6.748;2023-11-19T07:19:18;25.30;;;4.70;;
11481;SDS011;5797;51.662;6.748;2023-11-19T07:21:47;19.97;;;5.00;;
11481;SDS011;5797;51.662;6.748;2023-11-19T07:24:18;16.50;;;3.93;;
11481;SDS011;5797;51.662;6.748;2023-11-19T07:26:51;14.90;;;4.10;;
11481;SDS011;5797;51.662;6.748;2023-11-19T07:29:32;22.07;;;4.87;;
11481;SDS011;5797;51.662;6.748;2023-11-19T07:32:30;21.80;;;4.07;;
11481;SDS011;5797;51.662;6.748;2023-11-19T07:34:58;18.90;;;4.07;;
11481;SDS011;5797;51.662;6.748;2023-11-19T07:37:28;27.87;;;4.53;;
11481;SDS011;5797;51.662;6.748;2023-11-19T07:39:58;26.93;;;5.53;;
11481;SDS011;5797;51.662;6.748;2023-11-19T07:42:26;27.67;;;4.77;;
11481;SDS011;5797;51.662;6.748;2023-11-19T07:44:55;30.07;;;4.37;;
11481;SDS011;5797;51.662;6.748;2023-11-19T07:47:26;23.90;;;4.73;;
11481;SDS011;5797;51.662;6.748;2023-11-19T07:49:59;19.00;;;4.03;;
11481;SDS011;5797;51.662;6.748;2023-11-19T07:52:27;25.47;;;4.53;;
11481;SDS011;5797;51.662;6.748;2023-11-19T07:54:58;23.23;;;3.93;;
11481;SDS011;5797;51.662;6.748;2023-11-19T07:57:34;29.40;;;5.53;;
11481;SDS011;5797;51.662;6.748;2023-11-19T08:00:02;15.83;;;3.77;;
11481;SDS011;5797;51.662;6.748;2023-11-19T08:02:39;19.57;;;4.60;;
11481;SDS011;5797;51.662;6.748;2023-11-19T08:05:11;25.33;;;5.23;;
11481;SDS011;5797;51.662;6.748;2023-11-19T08:07:40;20.07;;;3.90;;
11481;SDS011;5797;51.662;6.748;2023-11-19T08:10:10;17.93;;;3.37;;
11481;SDS011;5797;51.662;6.748;2023-11-19T08:12:46;20.00;;;4.53;;
11481;SDS011;5797;51.662;6.748;2023-11-19T08:15:14;21.43;;;4.00;;
11481;SDS011;5797;51.662;6.748;2023-11-19T08:17:52;21.47;;;4.37;;
11481;SDS011;5797;51.662;6.748;2023-11-19T08:20:22;20.23;;;4.10;;
11481;SDS011;5797;51.662;6.748;2023-11-19T08:22:52;25.30;;;4.30;;
11481;SDS011;5797;51.662;6.748;2023-11-19T08:25:22;21.90;;;4.10;;
11481;SDS011;5797;51.662;6.748;2023-11-19T08:27:52;12.77;;;2.93;;
11481;SDS011;5797;51.662;6.748;2023-11-19T08:30:20;16.23;;;3.90;;
11481;SDS011;5797;51.662;6.748;2023-11-19T08:32:49;20.23;;;4.30;;
11481;SDS011;5797;51.662;6.748;2023-11-19T08:35:17;16.03;;;4.40;;
11481;SDS011;5797;51.662;6.748;2023-11-19T08:37:45;32.80;;;4.60;;
11481;SDS011;5797;51.662;6.748;2023-11-19T08:40:14;20.63;;;3.97;;
11481;SDS011;5797;51.662;6.748;2023-11-19T08:42:44;19.20;;;3.33;;
11481;SDS011;5797;51.662;6.748;2023-11-19T08:45:12;15.60;;;3.73;;
11481;SDS011;5797;51.662;6.748;2023-11-19T08:47:41;24.03;;;3.97;;
11481;SDS011;5797;51.662;6.748;2023-11-19T08:50:09;24.87;;;3.93;;
11481;SDS011;5797;51.662;6.748;2023-11-19T08:52:38;16.63;;;4.23;;
11481;SDS011;5797;51.662;6.748;2023-11-19T08:55:06;24.87;;;4.97;;
11481;SDS011;5797;51.662;6.748;2023-11-19T08:57:36;21.13;;;4.83;;
11481;SDS011;5797;51.662;6.748;2023-11-19T09:00:07;17.27;;;3.87;;
11481;SDS011;5797;51.662;6.748;2023-11-19T09:02:36;19.40;;;4.37;;
11481;SDS011;5797;51.662;6.748;2023-11-19T09:05:06;25.03;;;4.07;;
11481;SDS011;5797;51.662;6.748;2023-11-19T09:07:35;18.80;;;3.90;;
11481;SDS011;5797;51.662;6.748;2023-11-19T09:10:04;26.63;;;4.40;;
11481;SDS011;5797;51.662;6.748;2023-11-19T09:12:35;19.60;;;3.87;;
11481;SDS011;5797;51.662;6.748;2023-11-19T09:15:03;20.17;;;4.43;;
11481;SDS011;5797;51.662;6.748;2023-11-19T09:17:34;17.47;;;4.07;;
11481;SDS011;5797;51.662;6.748;2023-11-19T09:20:03;19.50;;;3.37;;
11481;SDS011;5797;51.662;6.748;2023-11-19T09:22:32;18.87;;;4.30;;
11481;SDS011;5797;51.662;6.748;2023-11-19T09:25:00;26.67;;;4.47;;
11481;SDS011;5797;51.662;6.748;2023-11-19T09:27:29;23.83;;;4.20;;
11481;SDS011;5797;51.662;6.748;2023-11-19T09:29:57;16.60;;;4.47;;
11481;SDS011;5797;51.662;6.748;2023-11-19T09:32:25;20.53;;;4.20;;
11481;SDS011;5797;51.662;6.748;2023-11-19T09:34:55;24.40;;;4.10;;
11481;SDS011;5797;51.662;6.748;2023-11-19T09:37:24;20.03;;;4.23;;
11481;SDS011;5797;51.662;6.748;2023-11-19T09:39:52;21.93;;;5.00;;
11481;SDS011;5797;51.662;6.748;2023-11-19T09:42:20;24.73;;;3.83;;
11481;SDS011;5797;51.662;6.748;2023-11-19T09:44:49;19.57;;;3.50;;
11481;SDS011;5797;51.662;6.748;2023-11-19T09:47:17;21.63;;;4.37;;
11481;SDS011;5797;51.662;6.748;2023-11-19T09:49:47;20.20;;;3.90;;
11481;SDS011;5797;51.662;6.748;2023-11-19T09:52:19;21.77;;;4.40;;
11481;SDS011;5797;51.662;6.748;2023-11-19T09:54:47;23.43;;;4.53;;
11481;SDS011;5797;51.662;6.748;2023-11-19T09:57:15;30.63;;;3.93;;
11481;SDS011;5797;51.662;6.748;2023-11-19T09:59:45;16.40;;;4.20;;
11481;SDS011;5797;51.662;6.748;2023-11-19T10:02:14;22.37;;;4.17;;
11481;SDS011;5797;51.662;6.748;2023-11-19T10:04:43;23.03;;;3.80;;
11481;SDS011;5797;51.662;6.748;2023-11-19T10:07:14;15.63;;;4.50;;
11481;SDS011;5797;51.662;6.748;2023-11-19T10:09:43;23.27;;;4.47;;
11481;SDS011;5797;51.662;6.748;2023-11-19T10:12:13;26.87;;;4.87;;
11481;SDS011;5797;51.662;6.748;2023-11-19T10:14:43;29.93;;;4.13;;
11481;SDS011;5797;51.662;6.748;2023-11-19T10:17:12;22.73;;;5.13;;
11481;SDS011;5797;51.662;6.748;2023-11-19T10:19:41;22.33;;;3.97;;
11481;SDS011;5797;51.662;6.748;2023-11-19T10:22:09;20.37;;;4.10;;
11481;SDS011;5797;51.662;6.748;2023-11-19T10:24:38;19.67;;;3.93;;
11481;SDS011;5797;51.662;6.748;2023-11-19T10:27:13;16.47;;;3.90;;
11481;SDS011;5797;51.662;6.748;2023-11-19T10:29:43;21.40;;;4.70;;
11481;SDS011;5797;51.662;6.748;2023-11-19T10:32:13;24.73;;;4.03;;
11481;SDS011;5797;51.662;6.748;2023-11-19T10:34:49;22.87;;;4.20;;
11481;SDS011;5797;51.662;6.748;2023-11-19T10:37:29;17.93;;;4.30;;
11481;SDS011;5797;51.662;6.748;2023-11-19T10:39:58;25.23;;;3.90;;
11481;SDS011;5797;51.662;6.748;2023-11-19T10:42:28;31.83;;;4.63;;
11481;SDS011;5797;51.662;6.748;2023-11-19T10:44:57;21.30;;;4.07;;
11481;SDS011;5797;51.662;6.748;2023-11-19T10:47:25;21.57;;;4.63;;
11481;SDS011;5797;51.662;6.748;2023-11-19T10:49:58;12.03;;;3.73;;
11481;SDS011;5797;51.662;6.748;2023-11-19T10:52:27;13.67;;;3.87;;
11481;SDS011;5797;51.662;6.748;2023-11-19T10:54:55;19.30;;;3.80;;
11481;SDS011;5797;51.662;6.748;2023-11-19T10:57:27;19.07;;;3.73;;
11481;SDS011;5797;51.662;6.748;2023-11-19T11:00:01;12.40;;;3.77;;
11481;SDS011;5797;51.662;6.748;2023-11-19T11:02:32;23.60;;;4.17;;
11481;SDS011;5797;51.662;6.748;2023-11-19T11:05:04;18.10;;;3.70;;
11481;SDS011;5797;51.662;6.748;2023-11-19T11:07:33;14.87;;;3.60;;
11481;SDS011;5797;51.662;6.748;2023-11-19T11:10:06;19.20;;;3.93;;
11481;SDS011;5797;51.662;6.748;2023-11-19T11:12:37;22.43;;;4.03;;
11481;SDS011;5797;51.662;6.748;2023-11-19T11:15:21;16.37;;;4.10;;
11481;SDS011;5797;51.662;6.748;2023-11-19T11:18:08;15.20;;;4.07;;
11481;SDS011;5797;51.662;6.748;2023-11-19T11:20:37;22.70;;;5.10;;
11481;SDS011;5797;51.662;6.748;2023-11-19T11:23:21;14.00;;;3.30;;
11481;SDS011;5797;51.662;6.748;2023-11-19T11:26:00;17.47;;;3.83;;
11481;SDS011;5797;51.662;6.748;2023-11-19T11:28:46;19.90;;;4.10;;
11481;SDS011;5797;51.662;6.748;2023-11-19T11:31:23;19.90;;;3.90;;
11481;SDS011;5797;51.662;6.748;2023-11-19T11:34:02;21.37;;;3.97;;
11481;SDS011;5797;51.662;6.748;2023-11-19T11:36:57;19.47;;;4.37;;
11481;SDS011;5797;51.662;6.748;2023-11-19T11:39:30;17.63;;;3.50;;
11481;SDS011;5797;51.662;6.748;2023-11-19T11:45:05;15.00;;;3.30;;
11481;SDS011;5797;51.662;6.748;2023-11-19T11:50:47;20.73;;;3.80;;
11481;SDS011;5797;51.662;6.748;2023-11-19T11:53:17;15.57;;;3.73;;
11481;SDS011;5797;51.662;6.748;2023-11-19T11:55:56;20.10;;;3.90;;
11481;SDS011;5797;51.662;6.748;2023-11-19T11:58:27;13.17;;;3.50;;
11481;SDS011;5797;51.662;6.748;2023-11-19T12:01:02;15.23;;;3.20;;
11481;SDS011;5797;51.662;6.748;2023-11-19T12:03:32;18.57;;;3.30;;
11481;SDS011;5797;51.662;6.748;2023-11-19T12:06:01;15.87;;;3.57;;
11481;SDS011;5797;51.662;6.748;2023-11-19T12:08:30;15.13;;;3.47;;
11481;SDS011;5797;51.662;6.748;2023-11-19T12:11:00;19.97;;;3.93;;
11481;SDS011;5797;51.662;6.748;2023-11-19T12:13:46;20.17;;;3.70;;
11481;SDS011;5797;51.662;6.748;2023-11-19T12:16:18;21.07;;;3.50;;
11481;SDS011;5797;51.662;6.748;2023-11-19T12:18:48;16.90;;;3.70;;
11481;SDS011;5797;51.662;6.748;2023-11-19T12:21:29;16.87;;;3.43;;
11481;SDS011;5797;51.662;6.748;2023-11-19T12:23:58;16.33;;;3.03;;
11481;SDS011;5797;51.662;6.748;2023-11-19T12:26:34;14.63;;;4.07;;
11481;SDS011;5797;51.662;6.748;2023-11-19T12:29:03;12.03;;;3.03;;
11481;SDS011;5797;51.662;6.748;2023-11-19T12:31:35;15.00;;;3.10;;
11481;SDS011;5797;51.662;6.748;2023-11-19T12:34:07;15.93;;;3.13;;
11481;SDS011;5797;51.662;6.748;2023-11-19T12:36:39;11.43;;;3.63;;
11481;SDS011;5797;51.662;6.748;2023-11-19T12:39:09;19.30;;;3.50;;
11481;SDS011;5797;51.662;6.748;2023-11-19T12:41:52;13.60;;;3.33;;
11481;SDS011;5797;51.662;6.748;2023-11-19T12:44:21;14.27;;;3.13;;
11481;SDS011;5797;51.662;6.748;2023-11-19T12:47:04;14.13;;;3.50;;
11481;SDS011;5797;51.662;6.748;2023-11-19T12:49:34;11.73;;;2.87;;
11481;SDS011;5797;51.662;6.748;2023-11-19T12:52:10;15.30;;;2.97;;
11481;SDS011;5797;51.662;6.748;2023-11-19T12:54:39;13.30;;;3.13;;
11481;SDS011;5797;51.662;6.748;2023-11-19T12:57:08;19.40;;;5.10;;
11481;SDS011;5797;51.662;6.748;2023-11-19T12:59:36;20.97;;;4.47;;
11481;SDS011;5797;51.662;6.748;2023-11-19T13:02:06;15.53;;;3.57;;
11481;SDS011;5797;51.662;6.748;2023-11-19T13:04:34;10.17;;;3.27;;
11481;SDS011;5797;51.662;6.748;2023-11-19T13:07:03;11.07;;;3.17;;
11481;SDS011;5797;51.662;6.748;2023-11-19T13:09:32;9.40;;;3.37;;
11481;SDS011;5797;51.662;6.748;2023-11-19T13:12:11;14.77;;;5.57;;
11481;SDS011;5797;51.662;6.748;2023-11-19T13:14:40;19.93;;;6.60;;
11481;SDS011;5797;51.662;6.748;2023-11-19T13:17:13;17.97;;;4.20;;
11481;SDS011;5797;51.662;6.748;2023-11-19T13:19:42;13.87;;;3.93;;
11481;SDS011;5797;51.662;6.748;2023-11-19T13:22:10;11.30;;;3.60;;
11481;SDS011;5797;51.662;6.748;2023-11-19T13:24:39;14.77;;;2.70;;
11481;SDS011;5797;51.662;6.748;2023-11-19T13:27:09;8.23;;;2.63;;
11481;SDS011;5797;51.662;6.748;2023-11-19T13:29:37;20.37;;;2.90;;
11481;SDS011;5797;51.662;6.748;2023-11-19T13:32:06;16.23;;;3.53;;
11481;SDS011;5797;51.662;6.748;2023-11-19T13:34:36;12.83;;;3.33;;
11481;SDS011;5797;51.662;6.748;2023-11-19T13:37:04;11.37;;;3.70;;
11481;SDS011;5797;51.662;6.748;2023-11-19T13:39:33;12.93;;;3.80;;
11481;SDS011;5797;51.662;6.748;2023-11-19T13:42:01;18.50;;;2.93;;
11481;SDS011;5797;51.662;6.748;2023-11-19T13:44:33;13.70;;;3.20;;
11481;SDS011;5797;51.662;6.748;2023-11-19T13:47:01;14.97;;;3.00;;
11481;SDS011;5797;51.662;6.748;2023-11-19T13:49:29;12.23;;;2.73;;
11481;SDS011;5797;51.662;6.748;2023-11-19T13:51:59;15.00;;;3.17;;
11481;SDS011;5797;51.662;6.748;2023-11-19T13:54:27;17.03;;;3.50;;
11481;SDS011;5797;51.662;6.748;2023-11-19T13:56:56;13.10;;;2.97;;
11481;SDS011;5797;51.662;6.748;2023-11-19T13:59:25;18.10;;;3.90;;
11481;SDS011;5797;51.662;6.748;2023-11-19T14:01:54;13.93;;;2.97;;
11481;SDS011;5797;51.662;6.748;2023-11-19T14:04:22;15.47;;;2.97;;
11481;SDS011;5797;51.662;6.748;2023-11-19T14:06:50;10.57;;;2.83;;
11481;SDS011;5797;51.662;6.748;2023-11-19T14:09:23;16.07;;;3.33;;
11481;SDS011;5797;51.662;6.748;2023-11-19T14:11:51;18.03;;;3.30;;
11481;SDS011;5797;51.662;6.748;2023-11-19T14:14:20;20.87;;;3.50;;
11481;SDS011;5797;51.662;6.748;2023-11-19T14:16:48;15.93;;;3.67;;
11481;SDS011;5797;51.662;6.748;2023-11-19T14:19:16;13.83;;;3.03;;
11481;SDS011;5797;51.662;6.748;2023-11-19T14:21:45;14.57;;;3.57;;
11481;SDS011;5797;51.662;6.748;2023-11-19T14:24:14;16.67;;;3.20;;
11481;SDS011;5797;51.662;6.748;2023-11-19T14:26:45;14.17;;;3.47;;
11481;SDS011;5797;51.662;6.748;2023-11-19T14:29:15;13.43;;;3.63;;
11481;SDS011;5797;51.662;6.748;2023-11-19T14:31:44;10.70;;;3.00;;
11481;SDS011;5797;51.662;6.748;2023-11-19T14:34:13;19.07;;;3.13;;
11481;SDS011;5797;51.662;6.748;2023-11-19T14:36:41;9.07;;;3.30;;
11481;SDS011;5797;51.662;6.748;2023-11-19T14:39:09;10.47;;;3.20;;
11481;SDS011;5797;51.662;6.748;2023-11-19T14:41:38;19.80;;;3.97;;
11481;SDS011;5797;51.662;6.748;2023-11-19T14:44:08;21.03;;;3.27;;
11481;SDS011;5797;51.662;6.748;2023-11-19T14:46:36;13.80;;;3.23;;
11481;SDS011;5797;51.662;6.748;2023-11-19T14:49:05;17.03;;;3.80;;
11481;SDS011;5797;51.662;6.748;2023-11-19T14:51:35;15.30;;;3.87;;
11481;SDS011;5797;51.662;6.748;2023-11-19T14:54:04;17.77;;;4.43;;
11481;SDS011;5797;51.662;6.748;2023-11-19T14:56:32;16.47;;;3.07;;
11481;SDS011;5797;51.662;6.748;2023-11-19T14:59:01;10.97;;;3.20;;
11481;SDS011;5797;51.662;6.748;2023-11-19T15:01:31;14.10;;;3.50;;
11481;SDS011;5797;51.662;6.748;2023-11-19T15:03:59;15.00;;;3.47;;
11481;SDS011;5797;51.662;6.748;2023-11-19T15:06:29;9.80;;;2.67;;
11481;SDS011;5797;51.662;6.748;2023-11-19T15:08:59;8.57;;;2.77;;
11481;SDS011;5797;51.662;6.748;2023-11-19T15:11:27;17.60;;;3.30;;
11481;SDS011;5797;51.662;6.748;2023-11-19T15:13:55;14.90;;;3.70;;
11481;SDS011;5797;51.662;6.748;2023-11-19T15:16:24;8.70;;;2.87;;
11481;SDS011;5797;51.662;6.748;2023-11-19T15:18:59;9.43;;;3.37;;